Blue Star Naxos — SZUI — position and weather

sailwx.info

Track history (hours):
 
Tides and Currents Weather Stations Pressure Air Temp Water Temp Dewpoint Dewpoint Depression Visibility Wind Speed Wind Dir Waves Ship Positions

Blue Star Naxos

Last reported at 2017-Apr-29 11:00 UTC. Time now 2017-Apr-29 11:28 UTC.
Position N 37°28' E 025°19'.

Length 124 m; draft 5 m.

Type: Passenger vessel. MMSI: 239923000.

Date/timePositionNaut miles runAvg speedWind from/ knotsBaromVisibWave heightAir tempDewpointWater temp
2017-Apr-29 11:00N 37°28' E 025°19'0 0.0
2017-Apr-29 10:30N 37°28' E 025°19'2 4.5
2017-Apr-29 10:00N 37°29' E 025°17'713.8
2017-Apr-29 09:30N 37°32' E 025°09'917.2
2017-Apr-29 08:59N 37°28' E 024°60'3 3.8
2017-Apr-29 08:17N 37°26' E 024°57'618.5
2017-Apr-29 07:57N 37°31' E 024°52'4421.9
2017-Apr-29 05:57N 37°36' E 023°57'1021.8
2017-Apr-29 05:30N 37°39' E 023°46'1121.2
2017-Apr-29 05:00N 37°48' E 023°39'918.0
2017-Apr-29 04:30N 37°57' E 023°38'0 0.1
2017-Apr-29 04:00N 37°57' E 023°38'0 0.0
2017-Apr-29 03:30N 37°57' E 023°38'1 2.9
2017-Apr-29 03:00N 37°56' E 023°37'1122.8
2017-Apr-29 02:30N 37°45' E 023°43'1121.5
2017-Apr-29 02:00N 37°39' E 023°53'1222.8
2017-Apr-29 01:30N 37°34' E 024°07'3422.3
2017-Apr-28 23:58N 37°19' E 024°45'1022.8
2017-Apr-28 23:31N 37°13' E 024°56'11 9.6
2017-Apr-28 22:20N 37°06' E 025°07'722.1
2017-Apr-28 22:00N 37°10' E 025°00'1122.3
2017-Apr-28 21:31N 37°17' E 024°49'3321.8
2017-Apr-28 19:59N 37°32' E 024°11'1322.2
2017-Apr-28 19:23N 37°36' E 023°55'822.2
2017-Apr-28 19:00N 37°40' E 023°46'1121.3
2017-Apr-28 18:30N 37°48' E 023°38'917.4
2017-Apr-28 18:00N 37°57' E 023°38'0 0.0
2017-Apr-28 17:30N 37°57' E 023°38'0 0.0
2017-Apr-28 17:00N 37°57' E 023°38'1 2.7
2017-Apr-28 16:31N 37°56' E 023°37'1122.6
2017-Apr-28 16:01N 37°46' E 023°43'1121.5
2017-Apr-28 15:31N 37°39' E 023°53'1122.5
2017-Apr-28 15:00N 37°34' E 024°07'3021.9
2017-Apr-28 13:39N 37°31' E 024°44'322.5
2017-Apr-28 13:30N 37°31' E 024°48'9 8.9
2017-Apr-28 12:32N 37°26' E 024°57'121.8
2017-Apr-28 12:30N 37°26' E 024°58'1121.8
2017-Apr-28 12:00N 37°32' E 025°09'510.7
2017-Apr-28 11:30N 37°30' E 025°15'4 7.9
2017-Apr-28 11:00N 37°28' E 025°20'0 0.0
2017-Apr-28 10:30N 37°28' E 025°20'713.8
2017-Apr-28 10:00N 37°31' E 025°12'510.2
2017-Apr-28 09:31N 37°30' E 025°05'8 6.7
2017-Apr-28 08:21N 37°26' E 024°57'618.4
2017-Apr-28 08:01N 37°31' E 024°52'4621.6
2017-Apr-28 05:53N 37°36' E 023°55'821.6
2017-Apr-28 05:30N 37°39' E 023°45'1021.1
2017-Apr-28 05:00N 37°48' E 023°38'918.0
2017-Apr-28 04:31N 37°57' E 023°38'0 0.1
2017-Apr-28 04:00N 37°57' E 023°38'0 0.0
2017-Apr-28 03:30N 37°57' E 023°38'0 0.0
2017-Apr-28 03:00N 37°57' E 023°38'0 0.0
2017-Apr-28 02:30N 37°57' E 023°38'0 0.0
2017-Apr-28 02:00N 37°57' E 023°38'0 0.0
2017-Apr-28 01:30N 37°57' E 023°38'0 0.0
2017-Apr-28 01:00N 37°57' E 023°38'0 0.0
2017-Apr-28 00:30N 37°57' E 023°38'0 0.0
2017-Apr-28 00:00N 37°57' E 023°38'0 0.0
2017-Apr-27 23:30N 37°57' E 023°38'0 0.0
2017-Apr-27 23:00N 37°57' E 023°38'0 0.0
2017-Apr-27 22:30N 37°57' E 023°38'0 0.0
2017-Apr-27 22:00N 37°57' E 023°38'0 0.0
2017-Apr-27 21:30N 37°57' E 023°38'0 0.0
2017-Apr-27 21:00N 37°57' E 023°38'0 0.0
2017-Apr-27 20:30N 37°57' E 023°38'0 0.0
2017-Apr-27 20:00N 37°57' E 023°38'0 0.0
2017-Apr-27 19:30N 37°57' E 023°38'0 0.0
2017-Apr-27 19:00N 37°57' E 023°38'0 0.0
2017-Apr-27 18:30N 37°57' E 023°38'0 0.0
2017-Apr-27 18:00N 37°57' E 023°38'0 0.0
2017-Apr-27 17:30N 37°57' E 023°38'0 0.0
2017-Apr-27 17:00N 37°57' E 023°38'2 4.5
2017-Apr-27 16:30N 37°55' E 023°38'1122.4
2017-Apr-27 16:00N 37°44' E 023°43'1121.4
2017-Apr-27 15:31N 37°39' E 023°55'4021.7
2017-Apr-27 13:41N 37°31' E 024°44'422.3
2017-Apr-27 13:30N 37°31' E 024°49'815.4
2017-Apr-27 13:00N 37°26' E 024°57'2 4.5
2017-Apr-27 12:31N 37°27' E 024°59'1019.0
2017-Apr-27 12:00N 37°32' E 025°09'510.7
2017-Apr-27 11:30N 37°29' E 025°15'4 7.7
2017-Apr-27 11:00N 37°28' E 025°19'0 0.0
2017-Apr-27 10:30N 37°28' E 025°19'2 3.6
2017-Apr-27 10:00N 37°28' E 025°17'714.7
2017-Apr-27 09:30N 37°32' E 025°09'1121.2
2017-Apr-27 09:01N 37°27' E 024°58'1 2.4
2017-Apr-27 08:29N 37°26' E 024°57'611.1
2017-Apr-27 07:58N 37°31' E 024°53'4521.9
2017-Apr-27 05:54N 37°36' E 023°56'921.9
2017-Apr-27 05:31N 37°39' E 023°46'1121.3
2017-Apr-27 05:00N 37°48' E 023°38'918.2
2017-Apr-27 04:31N 37°57' E 023°38'0 0.1
2017-Apr-27 04:00N 37°57' E 023°38'0 0.0
2017-Apr-27 03:30N 37°57' E 023°38'0 0.0
2017-Apr-27 03:00N 37°57' E 023°38'0 0.0
2017-Apr-27 02:30N 37°57' E 023°38'0 0.0
2017-Apr-27 02:00N 37°57' E 023°38'0 0.0
2017-Apr-27 01:30N 37°57' E 023°38'0 0.0
2017-Apr-27 01:00N 37°57' E 023°38'0 0.0
2017-Apr-27 00:30N 37°57' E 023°38'0 0.0
2017-Apr-27 00:00N 37°57' E 023°38'0 0.0
2017-Apr-26 23:30N 37°57' E 023°38'0 0.0
2017-Apr-26 23:00N 37°57' E 023°38'0 0.0
2017-Apr-26 22:30N 37°57' E 023°38'0 0.0
2017-Apr-26 22:00N 37°57' E 023°38'0 0.0
2017-Apr-26 21:30N 37°57' E 023°38'0 0.0
2017-Apr-26 21:00N 37°57' E 023°38'0 0.0
2017-Apr-26 20:30N 37°57' E 023°38'0 0.0
2017-Apr-26 20:00N 37°57' E 023°38'0 0.0
2017-Apr-26 19:30N 37°57' E 023°38'0 0.0
2017-Apr-26 19:00N 37°57' E 023°38'0 0.0
2017-Apr-26 18:30N 37°57' E 023°38'0 0.0
2017-Apr-26 18:00N 37°57' E 023°38'0 0.0
2017-Apr-26 17:30N 37°57' E 023°38'0 0.0
2017-Apr-26 17:00N 37°57' E 023°38'2 4.9
2017-Apr-26 16:30N 37°54' E 023°38'1122.3
2017-Apr-26 16:01N 37°44' E 023°44'1121.5
2017-Apr-26 15:30N 37°38' E 023°55'3921.6
2017-Apr-26 13:41N 37°31' E 024°44'422.2
2017-Apr-26 13:30N 37°31' E 024°49'810.3
2017-Apr-26 12:45N 37°26' E 024°57'311.4
2017-Apr-26 12:30N 37°27' E 024°60'918.1
2017-Apr-26 12:00N 37°32' E 025°09'510.4
2017-Apr-26 11:31N 37°30' E 025°15'4 8.0
2017-Apr-26 11:00N 37°28' E 025°19'0 0.0
2017-Apr-26 10:30N 37°28' E 025°19'0 0.3
2017-Apr-26 10:01N 37°28' E 025°19'917.1
2017-Apr-26 09:30N 37°32' E 025°10'612.1
2017-Apr-26 09:00N 37°29' E 025°03'6 9.0
2017-Apr-26 08:23N 37°26' E 024°57'614.2
2017-Apr-26 07:58N 37°31' E 024°52'4421.6
2017-Apr-26 05:57N 37°36' E 023°57'1021.7
2017-Apr-26 05:29N 37°39' E 023°46'1021.2
2017-Apr-26 05:00N 37°48' E 023°38'918.5
2017-Apr-26 04:31N 37°57' E 023°38'0 0.2
2017-Apr-26 04:00N 37°57' E 023°38'0 0.0
2017-Apr-26 03:31N 37°57' E 023°38'0 0.0
2017-Apr-26 03:01N 37°57' E 023°38'0 0.0
2017-Apr-26 02:31N 37°57' E 023°38'0 0.0
2017-Apr-26 02:01N 37°57' E 023°38'0 0.0
2017-Apr-26 01:31N 37°57' E 023°38'0 0.0
2017-Apr-26 01:00N 37°57' E 023°38'0 0.0
2017-Apr-26 00:31N 37°57' E 023°38'0 0.0
2017-Apr-26 00:01N 37°57' E 023°38'0 0.0
2017-Apr-25 23:31N 37°57' E 023°38'0 0.0
2017-Apr-25 23:01N 37°57' E 023°38'0 0.0
2017-Apr-25 22:31N 37°57' E 023°38'0 0.0
2017-Apr-25 22:01N 37°57' E 023°38'0 0.0
2017-Apr-25 21:31N 37°57' E 023°38'0 0.0
2017-Apr-25 21:01N 37°57' E 023°38'0 0.0
2017-Apr-25 20:31N 37°57' E 023°38'0 0.0
2017-Apr-25 20:01N 37°57' E 023°38'0 0.0
2017-Apr-25 19:31N 37°57' E 023°38'0 0.0
2017-Apr-25 19:01N 37°57' E 023°38'0 0.0
2017-Apr-25 18:31N 37°57' E 023°38'0 0.0
2017-Apr-25 18:01N 37°57' E 023°38'0 0.0
2017-Apr-25 17:31N 37°57' E 023°38'0 0.0
2017-Apr-25 17:01N 37°57' E 023°38'2 4.5
2017-Apr-25 16:30N 37°55' E 023°38'1122.4
2017-Apr-25 16:00N 37°45' E 023°44'1221.5
2017-Apr-25 15:28N 37°37' E 023°55'3921.8
2017-Apr-25 13:41N 37°31' E 024°44'422.3
2017-Apr-25 13:30N 37°31' E 024°49'814.9
2017-Apr-25 12:59N 37°26' E 024°57'3 6.0
2017-Apr-25 12:30N 37°27' E 024°60'917.9
2017-Apr-25 12:00N 37°32' E 025°09'612.7
2017-Apr-25 11:31N 37°29' E 025°16'3 5.7
2017-Apr-25 11:01N 37°28' E 025°19'0 0.0
2017-Apr-25 10:31N 37°28' E 025°19'0 0.1
2017-Apr-25 10:00N 37°28' E 025°19'917.4
2017-Apr-25 09:30N 37°32' E 025°10'612.9
2017-Apr-25 09:01N 37°29' E 025°02'5 8.8
2017-Apr-25 08:25N 37°26' E 024°57'613.9
2017-Apr-25 08:00N 37°31' E 024°53'4421.6
2017-Apr-25 05:57N 37°36' E 023°57'1021.8
2017-Apr-25 05:30N 37°39' E 023°45'1121.2
2017-Apr-25 05:00N 37°48' E 023°38'918.1
2017-Apr-25 04:30N 37°57' E 023°38'0 0.2
2017-Apr-25 04:00N 37°57' E 023°38'0 0.0
2017-Apr-25 03:30N 37°57' E 023°38'0 0.0
2017-Apr-25 03:00N 37°57' E 023°38'0 0.0
2017-Apr-25 02:30N 37°57' E 023°38'0 0.0
2017-Apr-25 02:00N 37°57' E 023°38'0 0.0
2017-Apr-25 01:30N 37°57' E 023°38'0 0.0
2017-Apr-25 01:00N 37°57' E 023°38'0 0.0
2017-Apr-25 00:30N 37°57' E 023°38'0 0.0
2017-Apr-25 00:00N 37°57' E 023°38'0 0.0
2017-Apr-24 23:30N 37°57' E 023°38'0 0.0
2017-Apr-24 23:00N 37°57' E 023°38'0 0.0
2017-Apr-24 22:30N 37°57' E 023°38'0 0.0
2017-Apr-24 22:00N 37°57' E 023°38'0 0.0
2017-Apr-24 21:30N 37°57' E 023°38'0 0.0
2017-Apr-24 21:00N 37°57' E 023°38'0 0.0
2017-Apr-24 20:30N 37°57' E 023°38'0 0.0
2017-Apr-24 20:00N 37°57' E 023°38'0 0.0
2017-Apr-24 19:30N 37°57' E 023°38'0 0.0
2017-Apr-24 19:00N 37°57' E 023°38'0 0.0
2017-Apr-24 18:30N 37°57' E 023°38'0 0.0
2017-Apr-24 18:00N 37°57' E 023°38'0 0.0
2017-Apr-24 17:30N 37°57' E 023°38'0 0.0
2017-Apr-24 17:00N 37°57' E 023°38'2 4.1
2017-Apr-24 16:31N 37°55' E 023°38'1122.4
2017-Apr-24 16:00N 37°45' E 023°43'2422.0
2017-Apr-24 14:54N 37°33' E 024°10'2722.1
2017-Apr-24 13:42N 37°31' E 024°44'422.3
2017-Apr-24 13:30N 37°31' E 024°49'714.6
2017-Apr-24 13:00N 37°26' E 024°57'2 3.3
2017-Apr-24 12:30N 37°27' E 024°59'1019.8
2017-Apr-24 12:00N 37°32' E 025°09'510.4
2017-Apr-24 11:30N 37°30' E 025°15'4 8.1
2017-Apr-24 11:00N 37°28' E 025°19'0 0.0
2017-Apr-24 10:30N 37°28' E 025°19'0 0.0
2017-Apr-24 10:00N 37°28' E 025°19'510.7
2017-Apr-24 09:31N 37°30' E 025°13'611.5
2017-Apr-24 09:01N 37°31' E 025°06'915.6
2017-Apr-24 08:27N 37°26' E 024°57'611.8
2017-Apr-24 07:58N 37°31' E 024°52'5021.6
2017-Apr-24 05:40N 37°38' E 023°50'321.9
2017-Apr-24 05:30N 37°39' E 023°46'1020.9
2017-Apr-24 05:00N 37°48' E 023°38'918.6
2017-Apr-24 04:30N 37°57' E 023°38'0 0.1
2017-Apr-24 04:00N 37°57' E 023°38'0 0.0
2017-Apr-24 03:30N 37°57' E 023°38'0 0.0
2017-Apr-24 03:00N 37°57' E 023°38'0 0.0
2017-Apr-24 02:30N 37°57' E 023°38'0 0.0
2017-Apr-24 02:00N 37°57' E 023°38'0 0.0
2017-Apr-24 01:30N 37°57' E 023°38'0 0.0
2017-Apr-24 01:00N 37°57' E 023°38'0 0.0
2017-Apr-24 00:30N 37°57' E 023°38'0 0.0
2017-Apr-24 00:00N 37°57' E 023°38'0 0.0
2017-Apr-23 23:30N 37°57' E 023°38'0 0.0
2017-Apr-23 23:00N 37°57' E 023°38'0 0.0
2017-Apr-23 22:30N 37°57' E 023°38'0 0.0
2017-Apr-23 22:00N 37°57' E 023°38'0 0.0
2017-Apr-23 21:30N 37°57' E 023°38'0 0.0
2017-Apr-23 21:00N 37°57' E 023°38'0 0.0
2017-Apr-23 20:30N 37°57' E 023°38'0 0.0
2017-Apr-23 20:00N 37°57' E 023°38'0 0.0
2017-Apr-23 19:30N 37°57' E 023°38'0 0.0
2017-Apr-23 19:00N 37°57' E 023°38'0 0.0
2017-Apr-23 18:30N 37°57' E 023°38'0 0.0
2017-Apr-23 18:00N 37°57' E 023°38'0 0.0
2017-Apr-23 17:30N 37°57' E 023°38'0 0.0
2017-Apr-23 17:00N 37°57' E 023°38'1 2.9
2017-Apr-23 16:31N 37°56' E 023°37'1122.2
2017-Apr-23 16:01N 37°46' E 023°43'5021.3
2017-Apr-23 13:39N 37°31' E 024°44'322.6
2017-Apr-23 13:30N 37°31' E 024°48'8 9.2
2017-Apr-23 12:36N 37°26' E 024°57'1 6.6
2017-Apr-23 12:30N 37°26' E 024°57'1122.1
2017-Apr-23 12:00N 37°32' E 025°09'5 9.3
2017-Apr-23 11:30N 37°30' E 025°14'5 9.3
2017-Apr-23 11:00N 37°28' E 025°19'0 0.1
2017-Apr-23 10:30N 37°28' E 025°19'0 0.0
2017-Apr-23 09:59N 37°28' E 025°19'813.5
2017-Apr-23 09:22N 37°32' E 025°10'3 7.3
2017-Apr-23 09:00N 37°31' E 025°07'914.6
2017-Apr-23 08:23N 37°26' E 024°57'612.4
2017-Apr-23 07:56N 37°31' E 024°53'5021.9
2017-Apr-23 05:39N 37°38' E 023°50'322.3
2017-Apr-23 05:30N 37°39' E 023°46'1121.4
2017-Apr-23 05:01N 37°47' E 023°38'918.7
2017-Apr-23 04:31N 37°57' E 023°38'0 0.2
2017-Apr-23 04:00N 37°57' E 023°38'0 0.0
2017-Apr-23 03:31N 37°57' E 023°38'0 0.0
2017-Apr-23 03:00N 37°57' E 023°38'0 0.0
2017-Apr-23 02:31N 37°57' E 023°38'0 0.0
2017-Apr-23 02:01N 37°57' E 023°38'0 0.0
2017-Apr-23 01:31N 37°57' E 023°38'0 0.0
2017-Apr-23 01:01N 37°57' E 023°38'0 0.0
2017-Apr-23 00:31N 37°57' E 023°38'0 0.0
2017-Apr-23 00:01N 37°57' E 023°38'0 0.0
2017-Apr-22 23:31N 37°57' E 023°38'0 0.0
2017-Apr-22 23:01N 37°57' E 023°38'0 0.0
2017-Apr-22 22:31N 37°57' E 023°38'0 0.0
2017-Apr-22 22:01N 37°57' E 023°38'0 0.0
2017-Apr-22 21:31N 37°57' E 023°38'0 0.0
2017-Apr-22 21:01N 37°57' E 023°38'0 0.0
2017-Apr-22 20:31N 37°57' E 023°38'0 0.0
2017-Apr-22 20:01N 37°57' E 023°38'0 0.0
2017-Apr-22 19:31N 37°57' E 023°38'0 0.0
2017-Apr-22 19:01N 37°57' E 023°38'0 0.0
2017-Apr-22 18:30N 37°57' E 023°38'0 0.0
2017-Apr-22 18:01N 37°57' E 023°38'0 0.0
2017-Apr-22 17:30N 37°57' E 023°38'0 0.0
2017-Apr-22 17:00N 37°57' E 023°38'3 6.0
2017-Apr-22 16:31N 37°54' E 023°38'1122.6
2017-Apr-22 16:01N 37°44' E 023°44'1121.9
2017-Apr-22 15:30N 37°38' E 023°56'3821.8
2017-Apr-22 13:45N 37°31' E 024°44'522.2
2017-Apr-22 13:30N 37°31' E 024°50'7 8.1
2017-Apr-22 12:41N 37°26' E 024°57'211.9
2017-Apr-22 12:30N 37°27' E 024°59'1019.3
2017-Apr-22 12:01N 37°32' E 025°09'510.9
2017-Apr-22 11:30N 37°29' E 025°15'4 7.4
2017-Apr-22 11:00N 37°28' E 025°19'0 0.0
2017-Apr-22 10:31N 37°28' E 025°19'0 0.0
2017-Apr-22 10:00N 37°28' E 025°19'815.4
2017-Apr-22 09:30N 37°31' E 025°11'510.8
2017-Apr-22 09:00N 37°30' E 025°04'711.6
2017-Apr-22 08:24N 37°26' E 024°57'612.6
2017-Apr-22 07:58N 37°31' E 024°53'4921.8
2017-Apr-22 05:42N 37°38' E 023°51'422.4
2017-Apr-22 05:30N 37°39' E 023°46'1121.8
2017-Apr-22 05:00N 37°48' E 023°38'917.3
2017-Apr-22 04:30N 37°57' E 023°38'0 0.1
2017-Apr-22 04:00N 37°57' E 023°38'0 0.0
2017-Apr-22 03:30N 37°57' E 023°38'0 0.0
2017-Apr-22 03:00N 37°57' E 023°38'0 0.0
2017-Apr-22 02:30N 37°57' E 023°38'0 0.0
2017-Apr-22 02:00N 37°57' E 023°38'0 0.0
2017-Apr-22 01:30N 37°57' E 023°38'0 0.0
2017-Apr-22 01:00N 37°57' E 023°38'0 0.0
2017-Apr-22 00:30N 37°57' E 023°38'0 0.0
2017-Apr-22 00:00N 37°57' E 023°38'0 0.0
2017-Apr-21 23:30N 37°57' E 023°38'0 0.0
2017-Apr-21 23:00N 37°57' E 023°38'0 0.0
2017-Apr-21 22:30N 37°57' E 023°38'0 0.0
2017-Apr-21 22:00N 37°57' E 023°38'0 0.0
2017-Apr-21 21:30N 37°57' E 023°38'0 0.0
2017-Apr-21 21:00N 37°57' E 023°38'0 0.0
2017-Apr-21 20:30N 37°57' E 023°38'0 0.0
2017-Apr-21 20:00N 37°57' E 023°38'0 0.0
2017-Apr-21 19:30N 37°57' E 023°38'0 0.0
2017-Apr-21 19:00N 37°57' E 023°38'0 0.0
2017-Apr-21 18:30N 37°57' E 023°38'0 0.0
2017-Apr-21 18:00N 37°57' E 023°38'0 0.0
2017-Apr-21 17:30N 37°57' E 023°38'0 0.0
2017-Apr-21 17:00N 37°57' E 023°38'4 7.9
2017-Apr-21 16:31N 37°53' E 023°38'1020.5
2017-Apr-21 16:01N 37°44' E 023°44'4921.9
2017-Apr-21 13:46N 37°31' E 024°44'622.6
2017-Apr-21 13:30N 37°31' E 024°51'6 7.5
2017-Apr-21 12:39N 37°26' E 024°57'317.9
2017-Apr-21 12:30N 37°27' E 024°60'918.4
2017-Apr-21 12:00N 37°32' E 025°09'611.2
2017-Apr-21 11:31N 37°29' E 025°15'4 7.4
2017-Apr-21 11:01N 37°28' E 025°20'0 0.0
2017-Apr-21 10:31N 37°28' E 025°20'0 0.1
2017-Apr-21 10:01N 37°28' E 025°20'1019.4
2017-Apr-21 09:30N 37°32' E 025°09'814.6
2017-Apr-21 08:56N 37°28' E 024°60'3 5.6
2017-Apr-21 08:25N 37°26' E 024°57'614.2
2017-Apr-21 08:00N 37°31' E 024°52'5021.5
2017-Apr-21 05:42N 37°38' E 023°50'422.2
2017-Apr-21 05:31N 37°39' E 023°45'1121.5
2017-Apr-21 05:01N 37°48' E 023°38'917.1
2017-Apr-21 04:30N 37°57' E 023°38'0 0.1
2017-Apr-21 04:00N 37°57' E 023°38'0 0.0
2017-Apr-21 03:30N 37°57' E 023°38'0 0.0
2017-Apr-21 03:00N 37°57' E 023°38'0 0.0
2017-Apr-21 02:30N 37°57' E 023°38'0 0.0
2017-Apr-21 02:00N 37°57' E 023°38'0 0.0
2017-Apr-21 01:30N 37°57' E 023°38'0 0.0
2017-Apr-21 01:00N 37°57' E 023°38'0 0.0
2017-Apr-21 00:30N 37°57' E 023°38'0 0.0
2017-Apr-21 00:00N 37°57' E 023°38'0 0.0
2017-Apr-20 23:30N 37°57' E 023°38'0 0.0
2017-Apr-20 23:00N 37°57' E 023°38'0 0.0
2017-Apr-20 22:30N 37°57' E 023°38'0 0.0
2017-Apr-20 22:00N 37°57' E 023°38'0 0.0
2017-Apr-20 21:30N 37°57' E 023°38'0 0.0
2017-Apr-20 21:00N 37°57' E 023°38'0 0.0
2017-Apr-20 20:30N 37°57' E 023°38'0 0.0
2017-Apr-20 20:00N 37°57' E 023°38'0 0.0
2017-Apr-20 19:30N 37°57' E 023°38'0 0.0
2017-Apr-20 19:00N 37°57' E 023°38'0 0.0
2017-Apr-20 18:30N 37°57' E 023°38'0 0.0
2017-Apr-20 18:00N 37°57' E 023°38'0 0.0
2017-Apr-20 17:30N 37°57' E 023°38'0 0.0
2017-Apr-20 17:00N 37°57' E 023°38'713.4
2017-Apr-20 16:31N 37°50' E 023°40'1121.1
2017-Apr-20 16:00N 37°41' E 023°47'2121.6
2017-Apr-20 15:03N 37°33' E 024°11'2621.6
2017-Apr-20 13:50N 37°31' E 024°44'1021.4
2017-Apr-20 13:22N 37°30' E 024°56'3 9.0
2017-Apr-20 13:00N 37°26' E 024°57'5 8.5
2017-Apr-20 12:27N 37°28' E 025°02'716.0
2017-Apr-20 12:00N 37°32' E 025°09'714.2
2017-Apr-20 11:30N 37°29' E 025°17'2 4.2
2017-Apr-20 11:00N 37°28' E 025°19'0 0.0
2017-Apr-20 10:30N 37°28' E 025°19'0 0.2
2017-Apr-20 10:01N 37°28' E 025°19'917.9
2017-Apr-20 09:30N 37°32' E 025°09'611.5
2017-Apr-20 09:01N 37°29' E 025°03'611.5
2017-Apr-20 08:30N 37°26' E 024°57'611.7
2017-Apr-20 08:01N 37°31' E 024°52'4621.7
2017-Apr-20 05:52N 37°37' E 023°54'821.5
2017-Apr-20 05:30N 37°39' E 023°45'1121.1
2017-Apr-20 05:00N 37°48' E 023°38'917.5
2017-Apr-20 04:31N 37°57' E 023°38'0 0.1
2017-Apr-20 04:00N 37°57' E 023°38'0 0.0
2017-Apr-20 03:30N 37°57' E 023°38'0 0.0
2017-Apr-20 03:00N 37°57' E 023°38'0 0.0
2017-Apr-20 02:30N 37°57' E 023°38'0 0.1
2017-Apr-20 02:00N 37°57' E 023°38'0 0.1
2017-Apr-20 01:30N 37°57' E 023°38'0 0.0
2017-Apr-20 01:00N 37°57' E 023°38'0 0.0
2017-Apr-20 00:30N 37°57' E 023°38'0 0.0
2017-Apr-20 00:00N 37°57' E 023°38'0 0.0
2017-Apr-19 23:30N 37°57' E 023°38'0 0.0
2017-Apr-19 23:00N 37°57' E 023°38'0 0.0
2017-Apr-19 22:30N 37°57' E 023°38'0 0.0
2017-Apr-19 22:00N 37°57' E 023°38'0 0.0
2017-Apr-19 21:30N 37°57' E 023°38'0 0.0
2017-Apr-19 21:00N 37°57' E 023°38'0 0.0
2017-Apr-19 20:30N 37°57' E 023°38'0 0.0
2017-Apr-19 20:00N 37°57' E 023°38'0 0.0
2017-Apr-19 19:30N 37°57' E 023°38'0 0.0
2017-Apr-19 19:00N 37°57' E 023°38'0 0.0
2017-Apr-19 18:30N 37°57' E 023°38'0 0.0
2017-Apr-19 18:00N 37°57' E 023°38'0 0.0
2017-Apr-19 17:30N 37°57' E 023°38'1 1.2
2017-Apr-19 17:01N 37°56' E 023°38'1019.3
2017-Apr-19 16:31N 37°47' E 023°42'1121.8
2017-Apr-19 16:01N 37°40' E 023°52'4220.6
2017-Apr-19 13:57N 37°38' E 024°46'1222.0
2017-Apr-19 13:25N 37°30' E 024°57'3 7.6
2017-Apr-19 13:00N 37°26' E 024°57'1 1.8
2017-Apr-19 12:30N 37°26' E 024°58'1121.3
2017-Apr-19 12:00N 37°32' E 025°09'510.8
2017-Apr-19 11:31N 37°29' E 025°15'  
Track history (hours):
 
Tides and Currents Weather Stations Pressure Air Temp Water Temp Dewpoint Dewpoint Depression Visibility Wind Speed Wind Dir Waves Ship Positions

Blue Star Naxos

Last reported at 2017-Apr-29 11:00 UTC. Time now 2017-Apr-29 11:28 UTC.
Position N 37°28' E 025°19'.

Length 124 m; draft 5 m.

Type: Passenger vessel. MMSI: 239923000.

Date/timePositionNaut miles runAvg speedWind from/ knotsBaromVisibWave heightAir tempDewpointWater temp
2017-Apr-29 11:00N 37°28' E 025°19'0 0.0
2017-Apr-29 10:30N 37°28' E 025°19'2 4.5
2017-Apr-29 10:00N 37°29' E 025°17'713.8
2017-Apr-29 09:30N 37°32' E 025°09'917.2
2017-Apr-29 08:59N 37°28' E 024°60'3 3.8
2017-Apr-29 08:17N 37°26' E 024°57'618.5
2017-Apr-29 07:57N 37°31' E 024°52'4421.9
2017-Apr-29 05:57N 37°36' E 023°57'1021.8
2017-Apr-29 05:30N 37°39' E 023°46'1121.2
2017-Apr-29 05:00N 37°48' E 023°39'918.0
2017-Apr-29 04:30N 37°57' E 023°38'0 0.1
2017-Apr-29 04:00N 37°57' E 023°38'0 0.0
2017-Apr-29 03:30N 37°57' E 023°38'1 2.9
2017-Apr-29 03:00N 37°56' E 023°37'1122.8
2017-Apr-29 02:30N 37°45' E 023°43'1121.5
2017-Apr-29 02:00N 37°39' E 023°53'1222.8
2017-Apr-29 01:30N 37°34' E 024°07'3422.3
2017-Apr-28 23:58N 37°19' E 024°45'1022.8
2017-Apr-28 23:31N 37°13' E 024°56'11 9.6
2017-Apr-28 22:20N 37°06' E 025°07'722.1
2017-Apr-28 22:00N 37°10' E 025°00'1122.3
2017-Apr-28 21:31N 37°17' E 024°49'3321.8
2017-Apr-28 19:59N 37°32' E 024°11'1322.2
2017-Apr-28 19:23N 37°36' E 023°55'822.2
2017-Apr-28 19:00N 37°40' E 023°46'1121.3
2017-Apr-28 18:30N 37°48' E 023°38'917.4
2017-Apr-28 18:00N 37°57' E 023°38'0 0.0
2017-Apr-28 17:30N 37°57' E 023°38'0 0.0
2017-Apr-28 17:00N 37°57' E 023°38'1 2.7
2017-Apr-28 16:31N 37°56' E 023°37'1122.6
2017-Apr-28 16:01N 37°46' E 023°43'1121.5
2017-Apr-28 15:31N 37°39' E 023°53'1122.5
2017-Apr-28 15:00N 37°34' E 024°07'3021.9
2017-Apr-28 13:39N 37°31' E 024°44'322.5
2017-Apr-28 13:30N 37°31' E 024°48'9 8.9
2017-Apr-28 12:32N 37°26' E 024°57'121.8
2017-Apr-28 12:30N 37°26' E 024°58'1121.8
2017-Apr-28 12:00N 37°32' E 025°09'510.7
2017-Apr-28 11:30N 37°30' E 025°15'4 7.9
2017-Apr-28 11:00N 37°28' E 025°20'0 0.0
2017-Apr-28 10:30N 37°28' E 025°20'713.8
2017-Apr-28 10:00N 37°31' E 025°12'510.2
2017-Apr-28 09:31N 37°30' E 025°05'8 6.7
2017-Apr-28 08:21N 37°26' E 024°57'618.4
2017-Apr-28 08:01N 37°31' E 024°52'4621.6
2017-Apr-28 05:53N 37°36' E 023°55'821.6
2017-Apr-28 05:30N 37°39' E 023°45'1021.1
2017-Apr-28 05:00N 37°48' E 023°38'918.0
2017-Apr-28 04:31N 37°57' E 023°38'0 0.1
2017-Apr-28 04:00N 37°57' E 023°38'0 0.0
2017-Apr-28 03:30N 37°57' E 023°38'0 0.0
2017-Apr-28 03:00N 37°57' E 023°38'0 0.0
2017-Apr-28 02:30N 37°57' E 023°38'0 0.0
2017-Apr-28 02:00N 37°57' E 023°38'0 0.0
2017-Apr-28 01:30N 37°57' E 023°38'0 0.0
2017-Apr-28 01:00N 37°57' E 023°38'0 0.0
2017-Apr-28 00:30N 37°57' E 023°38'0 0.0
2017-Apr-28 00:00N 37°57' E 023°38'0 0.0
2017-Apr-27 23:30N 37°57' E 023°38'0 0.0
2017-Apr-27 23:00N 37°57' E 023°38'0 0.0
2017-Apr-27 22:30N 37°57' E 023°38'0 0.0
2017-Apr-27 22:00N 37°57' E 023°38'0 0.0
2017-Apr-27 21:30N 37°57' E 023°38'0 0.0
2017-Apr-27 21:00N 37°57' E 023°38'0 0.0
2017-Apr-27 20:30N 37°57' E 023°38'0 0.0
2017-Apr-27 20:00N 37°57' E 023°38'0 0.0
2017-Apr-27 19:30N 37°57' E 023°38'0 0.0
2017-Apr-27 19:00N 37°57' E 023°38'0 0.0
2017-Apr-27 18:30N 37°57' E 023°38'0 0.0
2017-Apr-27 18:00N 37°57' E 023°38'0 0.0
2017-Apr-27 17:30N 37°57' E 023°38'0 0.0
2017-Apr-27 17:00N 37°57' E 023°38'2 4.5
2017-Apr-27 16:30N 37°55' E 023°38'1122.4
2017-Apr-27 16:00N 37°44' E 023°43'1121.4
2017-Apr-27 15:31N 37°39' E 023°55'4021.7
2017-Apr-27 13:41N 37°31' E 024°44'422.3
2017-Apr-27 13:30N 37°31' E 024°49'815.4
2017-Apr-27 13:00N 37°26' E 024°57'2 4.5
2017-Apr-27 12:31N 37°27' E 024°59'1019.0
2017-Apr-27 12:00N 37°32' E 025°09'510.7
2017-Apr-27 11:30N 37°29' E 025°15'4 7.7
2017-Apr-27 11:00N 37°28' E 025°19'0 0.0
2017-Apr-27 10:30N 37°28' E 025°19'2 3.6
2017-Apr-27 10:00N 37°28' E 025°17'714.7
2017-Apr-27 09:30N 37°32' E 025°09'1121.2
2017-Apr-27 09:01N 37°27' E 024°58'1 2.4
2017-Apr-27 08:29N 37°26' E 024°57'611.1
2017-Apr-27 07:58N 37°31' E 024°53'4521.9
2017-Apr-27 05:54N 37°36' E 023°56'921.9
2017-Apr-27 05:31N 37°39' E 023°46'1121.3
2017-Apr-27 05:00N 37°48' E 023°38'918.2
2017-Apr-27 04:31N 37°57' E 023°38'0 0.1
2017-Apr-27 04:00N 37°57' E 023°38'0 0.0
2017-Apr-27 03:30N 37°57' E 023°38'0 0.0
2017-Apr-27 03:00N 37°57' E 023°38'0 0.0
2017-Apr-27 02:30N 37°57' E 023°38'0 0.0
2017-Apr-27 02:00N 37°57' E 023°38'0 0.0
2017-Apr-27 01:30N 37°57' E 023°38'0 0.0
2017-Apr-27 01:00N 37°57' E 023°38'0 0.0
2017-Apr-27 00:30N 37°57' E 023°38'0 0.0
2017-Apr-27 00:00N 37°57' E 023°38'0 0.0
2017-Apr-26 23:30N 37°57' E 023°38'0 0.0
2017-Apr-26 23:00N 37°57' E 023°38'0 0.0
2017-Apr-26 22:30N 37°57' E 023°38'0 0.0
2017-Apr-26 22:00N 37°57' E 023°38'0 0.0
2017-Apr-26 21:30N 37°57' E 023°38'0 0.0
2017-Apr-26 21:00N 37°57' E 023°38'0 0.0
2017-Apr-26 20:30N 37°57' E 023°38'0 0.0
2017-Apr-26 20:00N 37°57' E 023°38'0 0.0
2017-Apr-26 19:30N 37°57' E 023°38'0 0.0
2017-Apr-26 19:00N 37°57' E 023°38'0 0.0
2017-Apr-26 18:30N 37°57' E 023°38'0 0.0
2017-Apr-26 18:00N 37°57' E 023°38'0 0.0
2017-Apr-26 17:30N 37°57' E 023°38'0 0.0
2017-Apr-26 17:00N 37°57' E 023°38'2 4.9
2017-Apr-26 16:30N 37°54' E 023°38'1122.3
2017-Apr-26 16:01N 37°44' E 023°44'1121.5
2017-Apr-26 15:30N 37°38' E 023°55'3921.6
2017-Apr-26 13:41N 37°31' E 024°44'422.2
2017-Apr-26 13:30N 37°31' E 024°49'810.3
2017-Apr-26 12:45N 37°26' E 024°57'311.4
2017-Apr-26 12:30N 37°27' E 024°60'918.1
2017-Apr-26 12:00N 37°32' E 025°09'510.4
2017-Apr-26 11:31N 37°30' E 025°15'4 8.0
2017-Apr-26 11:00N 37°28' E 025°19'0 0.0
2017-Apr-26 10:30N 37°28' E 025°19'0 0.3
2017-Apr-26 10:01N 37°28' E 025°19'917.1
2017-Apr-26 09:30N 37°32' E 025°10'612.1
2017-Apr-26 09:00N 37°29' E 025°03'6 9.0
2017-Apr-26 08:23N 37°26' E 024°57'614.2
2017-Apr-26 07:58N 37°31' E 024°52'4421.6
2017-Apr-26 05:57N 37°36' E 023°57'1021.7
2017-Apr-26 05:29N 37°39' E 023°46'1021.2
2017-Apr-26 05:00N 37°48' E 023°38'918.5
2017-Apr-26 04:31N 37°57' E 023°38'0 0.2
2017-Apr-26 04:00N 37°57' E 023°38'0 0.0
2017-Apr-26 03:31N 37°57' E 023°38'0 0.0
2017-Apr-26 03:01N 37°57' E 023°38'0 0.0
2017-Apr-26 02:31N 37°57' E 023°38'0 0.0
2017-Apr-26 02:01N 37°57' E 023°38'0 0.0
2017-Apr-26 01:31N 37°57' E 023°38'0 0.0
2017-Apr-26 01:00N 37°57' E 023°38'0 0.0
2017-Apr-26 00:31N 37°57' E 023°38'0 0.0
2017-Apr-26 00:01N 37°57' E 023°38'0 0.0
2017-Apr-25 23:31N 37°57' E 023°38'0 0.0
2017-Apr-25 23:01N 37°57' E 023°38'0 0.0
2017-Apr-25 22:31N 37°57' E 023°38'0 0.0
2017-Apr-25 22:01N 37°57' E 023°38'0 0.0
2017-Apr-25 21:31N 37°57' E 023°38'0 0.0
2017-Apr-25 21:01N 37°57' E 023°38'0 0.0
2017-Apr-25 20:31N 37°57' E 023°38'0 0.0
2017-Apr-25 20:01N 37°57' E 023°38'0 0.0
2017-Apr-25 19:31N 37°57' E 023°38'0 0.0
2017-Apr-25 19:01N 37°57' E 023°38'0 0.0
2017-Apr-25 18:31N 37°57' E 023°38'0 0.0
2017-Apr-25 18:01N 37°57' E 023°38'0 0.0
2017-Apr-25 17:31N 37°57' E 023°38'0 0.0
2017-Apr-25 17:01N 37°57' E 023°38'2 4.5
2017-Apr-25 16:30N 37°55' E 023°38'1122.4
2017-Apr-25 16:00N 37°45' E 023°44'1221.5
2017-Apr-25 15:28N 37°37' E 023°55'3921.8
2017-Apr-25 13:41N 37°31' E 024°44'422.3
2017-Apr-25 13:30N 37°31' E 024°49'814.9
2017-Apr-25 12:59N 37°26' E 024°57'3 6.0
2017-Apr-25 12:30N 37°27' E 024°60'917.9
2017-Apr-25 12:00N 37°32' E 025°09'612.7
2017-Apr-25 11:31N 37°29' E 025°16'3 5.7
2017-Apr-25 11:01N 37°28' E 025°19'0 0.0
2017-Apr-25 10:31N 37°28' E 025°19'0 0.1
2017-Apr-25 10:00N 37°28' E 025°19'917.4
2017-Apr-25 09:30N 37°32' E 025°10'612.9
2017-Apr-25 09:01N 37°29' E 025°02'5 8.8
2017-Apr-25 08:25N 37°26' E 024°57'613.9
2017-Apr-25 08:00N 37°31' E 024°53'4421.6
2017-Apr-25 05:57N 37°36' E 023°57'1021.8
2017-Apr-25 05:30N 37°39' E 023°45'1121.2
2017-Apr-25 05:00N 37°48' E 023°38'918.1
2017-Apr-25 04:30N 37°57' E 023°38'0 0.2
2017-Apr-25 04:00N 37°57' E 023°38'0 0.0
2017-Apr-25 03:30N 37°57' E 023°38'0 0.0
2017-Apr-25 03:00N 37°57' E 023°38'0 0.0
2017-Apr-25 02:30N 37°57' E 023°38'0 0.0
2017-Apr-25 02:00N 37°57' E 023°38'0 0.0
2017-Apr-25 01:30N 37°57' E 023°38'0 0.0
2017-Apr-25 01:00N 37°57' E 023°38'0 0.0
2017-Apr-25 00:30N 37°57' E 023°38'0 0.0
2017-Apr-25 00:00N 37°57' E 023°38'0 0.0
2017-Apr-24 23:30N 37°57' E 023°38'0 0.0
2017-Apr-24 23:00N 37°57' E 023°38'0 0.0
2017-Apr-24 22:30N 37°57' E 023°38'0 0.0
2017-Apr-24 22:00N 37°57' E 023°38'0 0.0
2017-Apr-24 21:30N 37°57' E 023°38'0 0.0
2017-Apr-24 21:00N 37°57' E 023°38'0 0.0
2017-Apr-24 20:30N 37°57' E 023°38'0 0.0
2017-Apr-24 20:00N 37°57' E 023°38'0 0.0
2017-Apr-24 19:30N 37°57' E 023°38'0 0.0
2017-Apr-24 19:00N 37°57' E 023°38'0 0.0
2017-Apr-24 18:30N 37°57' E 023°38'0 0.0
2017-Apr-24 18:00N 37°57' E 023°38'0 0.0
2017-Apr-24 17:30N 37°57' E 023°38'0 0.0
2017-Apr-24 17:00N 37°57' E 023°38'2 4.1
2017-Apr-24 16:31N 37°55' E 023°38'1122.4
2017-Apr-24 16:00N 37°45' E 023°43'2422.0
2017-Apr-24 14:54N 37°33' E 024°10'2722.1
2017-Apr-24 13:42N 37°31' E 024°44'422.3
2017-Apr-24 13:30N 37°31' E 024°49'714.6
2017-Apr-24 13:00N 37°26' E 024°57'2 3.3
2017-Apr-24 12:30N 37°27' E 024°59'1019.8
2017-Apr-24 12:00N 37°32' E 025°09'510.4
2017-Apr-24 11:30N 37°30' E 025°15'4 8.1
2017-Apr-24 11:00N 37°28' E 025°19'0 0.0
2017-Apr-24 10:30N 37°28' E 025°19'0 0.0
2017-Apr-24 10:00N 37°28' E 025°19'510.7
2017-Apr-24 09:31N 37°30' E 025°13'611.5
2017-Apr-24 09:01N 37°31' E 025°06'915.6
2017-Apr-24 08:27N 37°26' E 024°57'611.8
2017-Apr-24 07:58N 37°31' E 024°52'5021.6
2017-Apr-24 05:40N 37°38' E 023°50'321.9
2017-Apr-24 05:30N 37°39' E 023°46'1020.9
2017-Apr-24 05:00N 37°48' E 023°38'918.6
2017-Apr-24 04:30N 37°57' E 023°38'0 0.1
2017-Apr-24 04:00N 37°57' E 023°38'0 0.0
2017-Apr-24 03:30N 37°57' E 023°38'0 0.0
2017-Apr-24 03:00N 37°57' E 023°38'0 0.0
2017-Apr-24 02:30N 37°57' E 023°38'0 0.0
2017-Apr-24 02:00N 37°57' E 023°38'0 0.0
2017-Apr-24 01:30N 37°57' E 023°38'0 0.0
2017-Apr-24 01:00N 37°57' E 023°38'0 0.0
2017-Apr-24 00:30N 37°57' E 023°38'0 0.0
2017-Apr-24 00:00N 37°57' E 023°38'0 0.0
2017-Apr-23 23:30N 37°57' E 023°38'0 0.0
2017-Apr-23 23:00N 37°57' E 023°38'0 0.0
2017-Apr-23 22:30N 37°57' E 023°38'0 0.0
2017-Apr-23 22:00N 37°57' E 023°38'0 0.0
2017-Apr-23 21:30N 37°57' E 023°38'0 0.0
2017-Apr-23 21:00N 37°57' E 023°38'0 0.0
2017-Apr-23 20:30N 37°57' E 023°38'0 0.0
2017-Apr-23 20:00N 37°57' E 023°38'0 0.0
2017-Apr-23 19:30N 37°57' E 023°38'0 0.0
2017-Apr-23 19:00N 37°57' E 023°38'0 0.0
2017-Apr-23 18:30N 37°57' E 023°38'0 0.0
2017-Apr-23 18:00N 37°57' E 023°38'0 0.0
2017-Apr-23 17:30N 37°57' E 023°38'0 0.0
2017-Apr-23 17:00N 37°57' E 023°38'1 2.9
2017-Apr-23 16:31N 37°56' E 023°37'1122.2
2017-Apr-23 16:01N 37°46' E 023°43'5021.3
2017-Apr-23 13:39N 37°31' E 024°44'322.6
2017-Apr-23 13:30N 37°31' E 024°48'8 9.2
2017-Apr-23 12:36N 37°26' E 024°57'1 6.6
2017-Apr-23 12:30N 37°26' E 024°57'1122.1
2017-Apr-23 12:00N 37°32' E 025°09'5 9.3
2017-Apr-23 11:30N 37°30' E 025°14'5 9.3
2017-Apr-23 11:00N 37°28' E 025°19'0 0.1
2017-Apr-23 10:30N 37°28' E 025°19'0 0.0
2017-Apr-23 09:59N 37°28' E 025°19'813.5
2017-Apr-23 09:22N 37°32' E 025°10'3 7.3
2017-Apr-23 09:00N 37°31' E 025°07'914.6
2017-Apr-23 08:23N 37°26' E 024°57'612.4
2017-Apr-23 07:56N 37°31' E 024°53'5021.9
2017-Apr-23 05:39N 37°38' E 023°50'322.3
2017-Apr-23 05:30N 37°39' E 023°46'1121.4
2017-Apr-23 05:01N 37°47' E 023°38'918.7
2017-Apr-23 04:31N 37°57' E 023°38'0 0.2
2017-Apr-23 04:00N 37°57' E 023°38'0 0.0
2017-Apr-23 03:31N 37°57' E 023°38'0 0.0
2017-Apr-23 03:00N 37°57' E 023°38'0 0.0
2017-Apr-23 02:31N 37°57' E 023°38'0 0.0
2017-Apr-23 02:01N 37°57' E 023°38'0 0.0
2017-Apr-23 01:31N 37°57' E 023°38'0 0.0
2017-Apr-23 01:01N 37°57' E 023°38'0 0.0
2017-Apr-23 00:31N 37°57' E 023°38'0 0.0
2017-Apr-23 00:01N 37°57' E 023°38'0 0.0
2017-Apr-22 23:31N 37°57' E 023°38'0 0.0
2017-Apr-22 23:01N 37°57' E 023°38'0 0.0
2017-Apr-22 22:31N 37°57' E 023°38'0 0.0
2017-Apr-22 22:01N 37°57' E 023°38'0 0.0
2017-Apr-22 21:31N 37°57' E 023°38'0 0.0
2017-Apr-22 21:01N 37°57' E 023°38'0 0.0
2017-Apr-22 20:31N 37°57' E 023°38'0 0.0
2017-Apr-22 20:01N 37°57' E 023°38'0 0.0
2017-Apr-22 19:31N 37°57' E 023°38'0 0.0
2017-Apr-22 19:01N 37°57' E 023°38'0 0.0
2017-Apr-22 18:30N 37°57' E 023°38'0 0.0
2017-Apr-22 18:01N 37°57' E 023°38'0 0.0
2017-Apr-22 17:30N 37°57' E 023°38'0 0.0
2017-Apr-22 17:00N 37°57' E 023°38'3 6.0
2017-Apr-22 16:31N 37°54' E 023°38'1122.6
2017-Apr-22 16:01N 37°44' E 023°44'1121.9
2017-Apr-22 15:30N 37°38' E 023°56'3821.8
2017-Apr-22 13:45N 37°31' E 024°44'522.2
2017-Apr-22 13:30N 37°31' E 024°50'7 8.1
2017-Apr-22 12:41N 37°26' E 024°57'211.9
2017-Apr-22 12:30N 37°27' E 024°59'1019.3
2017-Apr-22 12:01N 37°32' E 025°09'510.9
2017-Apr-22 11:30N 37°29' E 025°15'4 7.4
2017-Apr-22 11:00N 37°28' E 025°19'0 0.0
2017-Apr-22 10:31N 37°28' E 025°19'0 0.0
2017-Apr-22 10:00N 37°28' E 025°19'815.4
2017-Apr-22 09:30N 37°31' E 025°11'510.8
2017-Apr-22 09:00N 37°30' E 025°04'711.6
2017-Apr-22 08:24N 37°26' E 024°57'612.6
2017-Apr-22 07:58N 37°31' E 024°53'4921.8
2017-Apr-22 05:42N 37°38' E 023°51'422.4
2017-Apr-22 05:30N 37°39' E 023°46'1121.8
2017-Apr-22 05:00N 37°48' E 023°38'917.3
2017-Apr-22 04:30N 37°57' E 023°38'0 0.1
2017-Apr-22 04:00N 37°57' E 023°38'0 0.0
2017-Apr-22 03:30N 37°57' E 023°38'0 0.0
2017-Apr-22 03:00N 37°57' E 023°38'0 0.0
2017-Apr-22 02:30N 37°57' E 023°38'0 0.0
2017-Apr-22 02:00N 37°57' E 023°38'0 0.0
2017-Apr-22 01:30N 37°57' E 023°38'0 0.0
2017-Apr-22 01:00N 37°57' E 023°38'0 0.0
2017-Apr-22 00:30N 37°57' E 023°38'0 0.0
2017-Apr-22 00:00N 37°57' E 023°38'0 0.0
2017-Apr-21 23:30N 37°57' E 023°38'0 0.0
2017-Apr-21 23:00N 37°57' E 023°38'0 0.0
2017-Apr-21 22:30N 37°57' E 023°38'0 0.0
2017-Apr-21 22:00N 37°57' E 023°38'0 0.0
2017-Apr-21 21:30N 37°57' E 023°38'0 0.0
2017-Apr-21 21:00N 37°57' E 023°38'0 0.0
2017-Apr-21 20:30N 37°57' E 023°38'0 0.0
2017-Apr-21 20:00N 37°57' E 023°38'0 0.0
2017-Apr-21 19:30N 37°57' E 023°38'0 0.0
2017-Apr-21 19:00N 37°57' E 023°38'0 0.0
2017-Apr-21 18:30N 37°57' E 023°38'0 0.0
2017-Apr-21 18:00N 37°57' E 023°38'0 0.0
2017-Apr-21 17:30N 37°57' E 023°38'0 0.0
2017-Apr-21 17:00N 37°57' E 023°38'4 7.9
2017-Apr-21 16:31N 37°53' E 023°38'1020.5
2017-Apr-21 16:01N 37°44' E 023°44'4921.9
2017-Apr-21 13:46N 37°31' E 024°44'622.6
2017-Apr-21 13:30N 37°31' E 024°51'6 7.5
2017-Apr-21 12:39N 37°26' E 024°57'317.9
2017-Apr-21 12:30N 37°27' E 024°60'918.4
2017-Apr-21 12:00N 37°32' E 025°09'611.2
2017-Apr-21 11:31N 37°29' E 025°15'4 7.4
2017-Apr-21 11:01N 37°28' E 025°20'0 0.0
2017-Apr-21 10:31N 37°28' E 025°20'0 0.1
2017-Apr-21 10:01N 37°28' E 025°20'1019.4
2017-Apr-21 09:30N 37°32' E 025°09'814.6
2017-Apr-21 08:56N 37°28' E 024°60'3 5.6
2017-Apr-21 08:25N 37°26' E 024°57'614.2
2017-Apr-21 08:00N 37°31' E 024°52'5021.5
2017-Apr-21 05:42N 37°38' E 023°50'422.2
2017-Apr-21 05:31N 37°39' E 023°45'1121.5
2017-Apr-21 05:01N 37°48' E 023°38'917.1
2017-Apr-21 04:30N 37°57' E 023°38'0 0.1
2017-Apr-21 04:00N 37°57' E 023°38'0 0.0
2017-Apr-21 03:30N 37°57' E 023°38'0 0.0
2017-Apr-21 03:00N 37°57' E 023°38'0 0.0
2017-Apr-21 02:30N 37°57' E 023°38'0 0.0
2017-Apr-21 02:00N 37°57' E 023°38'0 0.0
2017-Apr-21 01:30N 37°57' E 023°38'0 0.0
2017-Apr-21 01:00N 37°57' E 023°38'0 0.0
2017-Apr-21 00:30N 37°57' E 023°38'0 0.0
2017-Apr-21 00:00N 37°57' E 023°38'0 0.0
2017-Apr-20 23:30N 37°57' E 023°38'0 0.0
2017-Apr-20 23:00N 37°57' E 023°38'0 0.0
2017-Apr-20 22:30N 37°57' E 023°38'0 0.0
2017-Apr-20 22:00N 37°57' E 023°38'0 0.0
2017-Apr-20 21:30N 37°57' E 023°38'0 0.0
2017-Apr-20 21:00N 37°57' E 023°38'0 0.0
2017-Apr-20 20:30N 37°57' E 023°38'0 0.0
2017-Apr-20 20:00N 37°57' E 023°38'0 0.0
2017-Apr-20 19:30N 37°57' E 023°38'0 0.0
2017-Apr-20 19:00N 37°57' E 023°38'0 0.0
2017-Apr-20 18:30N 37°57' E 023°38'0 0.0
2017-Apr-20 18:00N 37°57' E 023°38'0 0.0
2017-Apr-20 17:30N 37°57' E 023°38'0 0.0
2017-Apr-20 17:00N 37°57' E 023°38'713.4
2017-Apr-20 16:31N 37°50' E 023°40'1121.1
2017-Apr-20 16:00N 37°41' E 023°47'2121.6
2017-Apr-20 15:03N 37°33' E 024°11'2621.6
2017-Apr-20 13:50N 37°31' E 024°44'1021.4
2017-Apr-20 13:22N 37°30' E 024°56'3 9.0
2017-Apr-20 13:00N 37°26' E 024°57'5 8.5
2017-Apr-20 12:27N 37°28' E 025°02'716.0
2017-Apr-20 12:00N 37°32' E 025°09'714.2
2017-Apr-20 11:30N 37°29' E 025°17'2 4.2
2017-Apr-20 11:00N 37°28' E 025°19'0 0.0
2017-Apr-20 10:30N 37°28' E 025°19'0 0.2
2017-Apr-20 10:01N 37°28' E 025°19'917.9
2017-Apr-20 09:30N 37°32' E 025°09'611.5
2017-Apr-20 09:01N 37°29' E 025°03'611.5
2017-Apr-20 08:30N 37°26' E 024°57'611.7
2017-Apr-20 08:01N 37°31' E 024°52'4621.7
2017-Apr-20 05:52N 37°37' E 023°54'821.5
2017-Apr-20 05:30N 37°39' E 023°45'1121.1
2017-Apr-20 05:00N 37°48' E 023°38'917.5
2017-Apr-20 04:31N 37°57' E 023°38'0 0.1
2017-Apr-20 04:00N 37°57' E 023°38'0 0.0
2017-Apr-20 03:30N 37°57' E 023°38'0 0.0
2017-Apr-20 03:00N 37°57' E 023°38'0 0.0
2017-Apr-20 02:30N 37°57' E 023°38'0 0.1
2017-Apr-20 02:00N 37°57' E 023°38'0 0.1
2017-Apr-20 01:30N 37°57' E 023°38'0 0.0
2017-Apr-20 01:00N 37°57' E 023°38'0 0.0
2017-Apr-20 00:30N 37°57' E 023°38'0 0.0
2017-Apr-20 00:00N 37°57' E 023°38'0 0.0
2017-Apr-19 23:30N 37°57' E 023°38'0 0.0
2017-Apr-19 23:00N 37°57' E 023°38'0 0.0
2017-Apr-19 22:30N 37°57' E 023°38'0 0.0
2017-Apr-19 22:00N 37°57' E 023°38'0 0.0
2017-Apr-19 21:30N 37°57' E 023°38'0 0.0
2017-Apr-19 21:00N 37°57' E 023°38'0 0.0
2017-Apr-19 20:30N 37°57' E 023°38'0 0.0
2017-Apr-19 20:00N 37°57' E 023°38'0 0.0
2017-Apr-19 19:30N 37°57' E 023°38'0 0.0
2017-Apr-19 19:00N 37°57' E 023°38'0 0.0
2017-Apr-19 18:30N 37°57' E 023°38'0 0.0
2017-Apr-19 18:00N 37°57' E 023°38'0 0.0
2017-Apr-19 17:30N 37°57' E 023°38'1 1.2
2017-Apr-19 17:01N 37°56' E 023°38'1019.3
2017-Apr-19 16:31N 37°47' E 023°42'1121.8
2017-Apr-19 16:01N 37°40' E 023°52'4220.6
2017-Apr-19 13:57N 37°38' E 024°46'1222.0
2017-Apr-19 13:25N 37°30' E 024°57'3 7.6
2017-Apr-19 13:00N 37°26' E 024°57'1 1.8
2017-Apr-19 12:30N 37°26' E 024°58'1121.3
2017-Apr-19 12:00N 37°32' E 025°09'510.8
2017-Apr-19 11:31N 37°29' E 025°15'  

Dump ship's entire track history